createdAt,value
2018-05-24T00:02:27.384Z,51.10
2018-05-24T00:04:54.909Z,49.00
2018-05-24T00:07:22.436Z,49.20
2018-05-24T00:09:49.960Z,50.50
2018-05-24T00:12:17.480Z,51.30
2018-05-24T00:14:44.999Z,50.90
2018-05-24T00:17:12.522Z,49.50
2018-05-24T00:19:40.040Z,49.60
2018-05-24T00:22:07.580Z,51.90
2018-05-24T00:24:35.104Z,50.10
2018-05-24T00:27:02.650Z,50.40
2018-05-24T00:29:30.168Z,49.80
2018-05-24T00:31:57.721Z,50.30
2018-05-24T00:34:25.241Z,49.40
2018-05-24T00:36:52.782Z,48.80
2018-05-24T00:39:20.300Z,49.50
2018-05-24T00:41:47.838Z,49.10
2018-05-24T00:44:15.363Z,48.60
2018-05-24T00:46:42.885Z,48.00
2018-05-24T00:49:10.403Z,48.30
2018-05-24T00:51:37.933Z,48.80
2018-05-24T00:54:05.447Z,49.20
2018-05-24T00:56:32.972Z,49.10
2018-05-24T00:59:00.483Z,48.70
2018-05-24T01:01:28.008Z,50.30
2018-05-24T01:03:55.541Z,48.80
2018-05-24T01:06:23.060Z,48.70
2018-05-24T01:08:50.582Z,49.00
2018-05-24T01:11:18.105Z,49.70
2018-05-24T01:13:45.615Z,51.50
2018-05-24T01:16:13.127Z,51.20
2018-05-24T01:18:40.654Z,49.40
2018-05-24T01:21:08.174Z,49.30
2018-05-24T01:23:35.693Z,50.60
2018-05-24T01:26:03.213Z,49.40
2018-05-24T01:28:30.735Z,49.10
2018-05-24T01:30:58.253Z,49.40
2018-05-24T01:33:25.774Z,49.40
2018-05-24T01:35:53.286Z,49.40
2018-05-24T01:38:20.803Z,49.40
2018-05-24T01:40:48.327Z,49.50
2018-05-24T01:43:15.843Z,49.50
2018-05-24T01:45:44.129Z,49.70
2018-05-24T01:48:11.643Z,49.60
2018-05-24T01:50:39.158Z,49.70
2018-05-24T01:53:06.683Z,49.70
2018-05-24T01:55:34.208Z,50.20
2018-05-24T01:58:01.738Z,49.90
2018-05-24T02:00:29.267Z,51.30
2018-05-24T02:02:56.803Z,51.10
2018-05-24T02:05:24.327Z,50.60
2018-05-24T02:07:51.872Z,51.00
2018-05-24T02:10:19.391Z,51.60
2018-05-24T02:12:46.921Z,51.00
2018-05-24T02:15:14.434Z,50.60
2018-05-24T02:17:41.968Z,50.70
2018-05-24T02:20:09.487Z,50.70
2018-05-24T02:22:37.011Z,51.30
2018-05-24T02:25:04.540Z,51.20
2018-05-24T02:27:32.052Z,52.00
2018-05-24T02:29:59.585Z,52.10
2018-05-24T02:32:27.100Z,51.60
2018-05-24T02:34:54.625Z,51.40
2018-05-24T02:37:22.908Z,53.40
2018-05-24T02:39:50.432Z,53.40
2018-05-24T02:42:17.947Z,52.70
2018-05-24T02:44:45.465Z,52.20
2018-05-24T02:47:12.973Z,52.70
2018-05-24T02:49:40.503Z,52.60
2018-05-24T02:52:08.022Z,52.50
2018-05-24T02:54:35.531Z,52.80
2018-05-24T02:57:03.059Z,52.50
2018-05-24T02:59:30.577Z,53.70
2018-05-24T03:01:58.136Z,52.60
2018-05-24T03:04:25.660Z,52.30
2018-05-24T03:06:53.172Z,52.70
2018-05-24T03:09:21.457Z,52.90
2018-05-24T03:11:48.982Z,52.90
2018-05-24T03:14:16.574Z,53.00
2018-05-24T03:16:44.032Z,53.20
2018-05-24T03:19:11.542Z,53.90
2018-05-24T03:21:39.060Z,55.10
2018-05-24T03:24:06.583Z,55.30
2018-05-24T03:26:34.113Z,54.40
2018-05-24T03:29:01.633Z,54.90
2018-05-24T03:31:29.155Z,55.70
2018-05-24T03:33:56.667Z,55.10
2018-05-24T03:36:24.181Z,55.60
2018-05-24T03:38:51.703Z,55.30
2018-05-24T03:41:19.224Z,55.30
2018-05-24T03:43:46.773Z,55.90
2018-05-24T03:46:14.295Z,54.10
2018-05-24T03:48:41.832Z,53.90
2018-05-24T03:51:09.353Z,54.30
2018-05-24T03:53:36.890Z,54.90
2018-05-24T03:56:04.419Z,54.60
2018-05-24T03:58:31.931Z,54.90
2018-05-24T04:01:11.051Z,54.20
2018-05-24T04:03:46.542Z,53.60
2018-05-24T04:06:15.548Z,53.40
2018-05-24T04:08:43.064Z,53.50
2018-05-24T04:11:10.579Z,54.60
2018-05-24T04:13:38.097Z,54.10
2018-05-24T04:16:05.629Z,54.00
2018-05-24T04:18:33.154Z,55.30
2018-05-24T04:21:00.671Z,54.20
2018-05-24T04:23:28.180Z,54.50
2018-05-24T04:25:55.704Z,54.80
2018-05-24T04:28:23.259Z,54.80
2018-05-24T04:30:50.782Z,55.20
2018-05-24T04:33:18.292Z,55.10
2018-05-24T04:35:45.803Z,55.40
2018-05-24T04:38:13.325Z,55.20
2018-05-24T04:40:40.864Z,55.90
2018-05-24T04:43:08.375Z,56.80
2018-05-24T04:45:35.962Z,56.20
2018-05-24T04:48:03.419Z,56.50
2018-05-24T04:50:30.939Z,56.80
2018-05-24T04:52:59.227Z,56.50
2018-05-24T04:55:26.799Z,56.50
2018-05-24T04:57:54.322Z,56.80
2018-05-24T05:00:21.835Z,56.80
2018-05-24T05:02:49.352Z,56.30
2018-05-24T05:05:16.884Z,55.70
2018-05-24T05:07:44.405Z,55.70
2018-05-24T05:10:11.926Z,56.00
2018-05-24T05:12:39.448Z,55.90
2018-05-24T05:15:07.003Z,56.10
2018-05-24T05:17:34.522Z,55.90
2018-05-24T05:20:02.039Z,56.00
2018-05-24T05:22:29.622Z,56.20
2018-05-24T05:24:57.154Z,56.30
2018-05-24T05:27:24.672Z,55.90
2018-05-24T05:29:52.196Z,56.30
2018-05-24T05:32:19.723Z,56.70
2018-05-24T05:34:47.242Z,56.10
2018-05-24T05:37:15.519Z,55.90
2018-05-24T05:39:43.123Z,55.90
2018-05-24T05:42:10.639Z,56.00
2018-05-24T05:44:38.951Z,55.40
2018-05-24T05:47:06.472Z,55.40
2018-05-24T05:49:34.752Z,55.60
2018-05-24T05:52:02.358Z,55.50
2018-05-24T05:54:29.807Z,55.70
2018-05-24T05:56:57.333Z,54.40
2018-05-24T05:59:24.847Z,54.20
2018-05-24T06:01:52.400Z,53.70
2018-05-24T06:04:19.899Z,53.50
2018-05-24T06:06:47.460Z,54.00
2018-05-24T06:09:14.990Z,53.70
2018-05-24T06:11:42.507Z,52.90
2018-05-24T06:14:10.030Z,51.70
2018-05-24T06:16:37.569Z,50.10
2018-05-24T06:19:05.107Z,51.10
2018-05-24T06:21:32.644Z,50.60
2018-05-24T06:24:00.164Z,50.20
2018-05-24T06:26:27.675Z,51.10
2018-05-24T06:28:55.222Z,50.50
2018-05-24T06:31:22.762Z,51.40
2018-05-24T06:33:50.284Z,51.10
2018-05-24T06:36:17.808Z,51.80
2018-05-24T06:38:45.331Z,52.00
2018-05-24T06:41:12.852Z,53.00
2018-05-24T06:43:40.360Z,52.00
2018-05-24T06:46:07.875Z,51.10
2018-05-24T06:48:35.387Z,50.40
2018-05-24T06:51:02.895Z,48.70
2018-05-24T06:53:30.406Z,49.10
2018-05-24T06:55:58.684Z,49.00
2018-05-24T06:58:26.202Z,49.00
2018-05-24T07:00:53.715Z,46.40
2018-05-24T07:03:21.228Z,43.20
2018-05-24T07:05:48.822Z,43.50
2018-05-24T07:08:16.283Z,42.80
2018-05-24T07:10:44.588Z,44.30
2018-05-24T07:13:12.110Z,44.30
2018-05-24T07:15:39.619Z,42.00
2018-05-24T07:18:07.150Z,41.30
2018-05-24T07:20:35.457Z,41.20
2018-05-24T07:23:03.112Z,41.20
2018-05-24T07:25:30.636Z,40.50
2018-05-24T07:27:58.154Z,41.20
2018-05-24T07:30:25.697Z,42.30
2018-05-24T07:32:53.219Z,42.90
2018-05-24T07:35:20.739Z,42.70
2018-05-24T07:37:48.267Z,43.30
2018-05-24T07:40:15.783Z,44.20
2018-05-24T07:42:43.314Z,44.30
2018-05-24T07:45:10.906Z,43.90
2018-05-24T07:47:38.365Z,43.10
2018-05-24T07:50:05.895Z,43.20
2018-05-24T07:52:33.419Z,44.10
2018-05-24T07:55:00.942Z,45.00
2018-05-24T07:57:28.467Z,43.80
2018-05-24T07:59:55.997Z,43.40
2018-05-24T08:02:23.524Z,44.40
2018-05-24T08:04:51.089Z,45.00
2018-05-24T08:07:18.627Z,44.10
2018-05-24T08:09:46.191Z,41.00
2018-05-24T08:12:13.699Z,40.30
2018-05-24T08:14:41.292Z,38.40
2018-05-24T08:17:09.520Z,34.30
2018-05-24T08:19:37.038Z,34.00
2018-05-24T08:22:04.552Z,33.60
2018-05-24T08:24:32.076Z,33.10
2018-05-24T08:26:59.600Z,33.60
2018-05-24T08:29:27.120Z,33.10
2018-05-24T08:31:54.632Z,33.20
2018-05-24T08:34:22.151Z,31.80
2018-05-24T08:36:49.667Z,32.20
2018-05-24T08:39:17.180Z,31.10
2018-05-24T08:41:44.787Z,32.50
2018-05-24T08:44:13.005Z,33.00
2018-05-24T08:46:40.531Z,32.90
2018-05-24T08:49:08.035Z,32.00
2018-05-24T08:51:35.555Z,32.50
2018-05-24T08:54:03.075Z,30.90
2018-05-24T08:56:30.610Z,31.20
2018-05-24T08:58:58.136Z,30.60
2018-05-24T09:01:25.702Z,32.00
2018-05-24T09:03:53.211Z,32.00
2018-05-24T09:06:20.727Z,33.00
2018-05-24T09:08:48.242Z,34.00
2018-05-24T09:11:15.756Z,35.90
2018-05-24T09:13:44.044Z,38.00
2018-05-24T09:16:11.562Z,37.90
2018-05-24T09:18:39.080Z,38.70
2018-05-24T09:21:06.615Z,39.30
2018-05-24T09:23:34.899Z,39.30
2018-05-24T09:26:02.412Z,39.30
2018-05-24T09:28:29.939Z,39.30
2018-05-24T09:30:57.462Z,39.40
2018-05-24T09:33:25.739Z,40.80
2018-05-24T09:35:53.272Z,40.70
2018-05-24T09:38:20.796Z,40.70
2018-05-24T09:40:48.318Z,41.00
2018-05-24T09:43:16.602Z,43.30
2018-05-24T09:45:44.113Z,43.20
2018-05-24T09:48:11.645Z,43.70
2018-05-24T09:50:39.168Z,43.80
2018-05-24T09:53:06.676Z,44.30
2018-05-24T09:55:34.191Z,44.00
2018-05-24T09:58:01.699Z,44.70
2018-05-24T10:00:29.215Z,43.80
2018-05-24T10:02:56.739Z,44.70
2018-05-24T10:05:24.268Z,44.10
2018-05-24T10:07:51.780Z,44.30
2018-05-24T10:10:19.307Z,45.10
2018-05-24T10:12:46.824Z,45.10
2018-05-24T10:15:15.107Z,46.00
2018-05-24T10:17:42.637Z,45.90
2018-05-24T10:20:10.162Z,45.30
2018-05-24T10:22:37.672Z,46.80
2018-05-24T10:25:05.943Z,46.40
2018-05-24T10:27:33.460Z,46.20
2018-05-24T10:30:00.980Z,47.20
2018-05-24T10:32:28.529Z,47.30
2018-05-24T10:34:56.817Z,48.30
2018-05-24T10:37:24.343Z,48.30
2018-05-24T10:39:51.861Z,48.60
2018-05-24T10:42:19.411Z,50.10
2018-05-24T10:44:46.948Z,50.50
2018-05-24T10:47:15.232Z,51.80
2018-05-24T10:49:42.753Z,51.80
2018-05-24T10:52:10.272Z,52.10
2018-05-24T10:54:37.788Z,51.30
2018-05-24T10:57:05.322Z,50.80
2018-05-24T10:59:32.946Z,50.60
2018-05-24T11:02:00.387Z,51.10
2018-05-24T11:04:27.912Z,49.80
2018-05-24T11:06:55.439Z,49.60
2018-05-24T11:09:22.980Z,49.80
2018-05-24T11:11:50.499Z,48.50
2018-05-24T11:14:18.016Z,49.80
2018-05-24T11:16:45.535Z,50.70
2018-05-24T11:19:13.067Z,51.00
2018-05-24T11:21:40.589Z,49.40
2018-05-24T11:24:08.117Z,49.70
2018-05-24T11:26:35.643Z,50.60
2018-05-24T11:29:03.160Z,50.40
2018-05-24T11:31:30.687Z,50.10
2018-05-24T11:33:58.220Z,49.90
2018-05-24T11:36:25.746Z,50.50
2018-05-24T11:38:53.263Z,50.80
2018-05-24T11:41:20.789Z,51.90
2018-05-24T11:43:48.311Z,50.70
2018-05-24T11:46:15.823Z,51.20
2018-05-24T11:48:43.343Z,51.80
2018-05-24T11:51:10.855Z,52.70
2018-05-24T11:53:38.380Z,52.30
2018-05-24T11:56:05.904Z,52.50
2018-05-24T11:58:33.419Z,52.40
2018-05-24T12:01:00.936Z,51.80
2018-05-24T12:03:28.475Z,51.80
2018-05-24T12:05:55.991Z,52.90
2018-05-24T12:08:23.511Z,53.00
2018-05-24T12:10:51.795Z,53.20
2018-05-24T12:13:19.312Z,53.20
2018-05-24T12:15:46.839Z,53.00
2018-05-24T12:18:14.372Z,53.70
2018-05-24T12:20:41.895Z,53.50
2018-05-24T12:23:09.421Z,53.70
2018-05-24T12:25:36.940Z,54.10
2018-05-24T12:28:04.460Z,56.50
2018-05-24T12:30:31.980Z,55.80
2018-05-24T12:32:59.495Z,56.00
2018-05-24T12:35:27.065Z,54.60
2018-05-24T12:37:54.555Z,55.60
2018-05-24T12:40:22.075Z,55.90
2018-05-24T12:42:49.597Z,55.20
2018-05-24T12:45:17.107Z,55.60
2018-05-24T12:47:44.637Z,56.00
2018-05-24T12:50:12.159Z,56.30
2018-05-24T12:52:39.694Z,56.20
2018-05-24T12:55:07.447Z,58.00
2018-05-24T12:57:34.974Z,57.60
2018-05-24T13:00:02.489Z,59.00
2018-05-24T13:02:30.007Z,58.80
2018-05-24T13:04:57.528Z,59.90
2018-05-24T13:07:25.059Z,59.70
2018-05-24T13:09:53.415Z,59.40
2018-05-24T13:12:20.880Z,59.30
2018-05-24T13:14:48.392Z,59.80
2018-05-24T13:17:15.909Z,59.10
2018-05-24T13:19:44.195Z,59.30
2018-05-24T13:22:11.938Z,59.30
2018-05-24T13:24:39.465Z,61.20
2018-05-24T13:27:06.981Z,60.10
2018-05-24T13:29:34.494Z,60.00
2018-05-24T13:32:02.007Z,60.40
2018-05-24T13:34:29.580Z,60.80
2018-05-24T13:36:57.072Z,59.60
2018-05-24T13:39:24.595Z,59.50
2018-05-24T13:41:52.112Z,60.10
2018-05-24T13:44:19.632Z,60.10
2018-05-24T13:46:47.147Z,60.30
2018-05-24T13:49:15.436Z,61.60
2018-05-24T13:51:43.722Z,61.60
2018-05-24T13:54:11.275Z,61.50
2018-05-24T13:56:38.792Z,62.00
2018-05-24T13:59:06.315Z,62.40
2018-05-24T14:01:33.869Z,63.10
2018-05-24T14:04:01.379Z,63.10
2018-05-24T14:06:28.892Z,63.50
2018-05-24T14:08:56.419Z,63.70
2018-05-24T14:11:23.940Z,63.90
2018-05-24T14:13:51.453Z,65.10
2018-05-24T14:16:18.975Z,64.20
2018-05-24T14:18:46.493Z,64.00
2018-05-24T14:21:14.028Z,64.80
2018-05-24T14:23:41.547Z,64.80
2018-05-24T14:26:09.127Z,64.70
2018-05-24T14:28:36.633Z,65.60
2018-05-24T14:31:04.160Z,65.70
2018-05-24T14:33:31.683Z,65.50
2018-05-24T14:35:59.214Z,65.70
2018-05-24T14:38:26.726Z,65.20
2018-05-24T14:40:54.253Z,65.90
2018-05-24T14:43:21.776Z,67.10
2018-05-24T14:45:49.299Z,66.80
2018-05-24T14:48:16.827Z,66.30
2018-05-24T14:50:44.343Z,66.40
2018-05-24T14:53:11.854Z,67.00
2018-05-24T14:55:39.376Z,67.40
2018-05-24T14:58:07.671Z,68.00
2018-05-24T15:00:35.191Z,68.00
2018-05-24T15:03:02.715Z,68.50
2018-05-24T15:05:30.277Z,68.60
2018-05-24T15:07:57.786Z,69.30
2018-05-24T15:10:26.073Z,69.90
2018-05-24T15:12:53.596Z,70.00
2018-05-24T15:15:21.115Z,69.00
2018-05-24T15:17:48.639Z,69.60
2018-05-24T15:20:16.181Z,70.20
2018-05-24T15:22:43.704Z,70.90
2018-05-24T15:25:11.228Z,70.80
2018-05-24T15:27:38.750Z,70.60
2018-05-24T15:30:06.262Z,70.30
2018-05-24T15:32:33.797Z,69.40
2018-05-24T15:35:02.105Z,69.40
2018-05-24T15:37:29.627Z,69.40
2018-05-24T15:39:57.151Z,69.40
2018-05-24T15:42:24.667Z,69.30
2018-05-24T15:44:52.956Z,67.90
2018-05-24T15:47:20.475Z,68.70
2018-05-24T15:49:48.016Z,67.40
2018-05-24T15:52:15.539Z,67.60
2018-05-24T15:54:43.068Z,67.30
2018-05-24T15:57:11.359Z,67.00
2018-05-24T15:59:38.957Z,67.00
2018-05-24T16:02:06.476Z,66.90
2018-05-24T16:04:34.000Z,66.70
2018-05-24T16:07:01.522Z,66.60
2018-05-24T16:09:29.039Z,66.80
2018-05-24T16:11:56.571Z,66.60
2018-05-24T16:14:24.104Z,67.20
2018-05-24T16:16:51.624Z,66.40
2018-05-24T16:19:19.145Z,67.20
2018-05-24T16:21:46.668Z,67.00
2018-05-24T16:24:14.200Z,66.70
2018-05-24T16:26:41.726Z,66.40
2018-05-24T16:29:09.242Z,66.50
2018-05-24T16:31:36.767Z,66.30
2018-05-24T16:34:04.290Z,66.30
2018-05-24T16:36:31.815Z,67.00
2018-05-24T16:39:00.105Z,66.60
2018-05-24T16:41:27.641Z,66.60
2018-05-24T16:43:55.167Z,67.00
2018-05-24T16:46:25.979Z,67.40
2018-05-24T16:48:53.494Z,67.50
2018-05-24T16:51:21.033Z,67.10
2018-05-24T16:53:48.562Z,67.20
2018-05-24T16:56:16.094Z,67.40
2018-05-24T16:58:43.623Z,67.10
2018-05-24T17:01:11.165Z,66.90
2018-05-24T17:03:38.703Z,66.70
2018-05-24T17:06:06.228Z,66.70
2018-05-24T17:08:33.742Z,66.80
2018-05-24T17:11:01.267Z,66.60
2018-05-24T17:13:28.792Z,66.80
2018-05-24T17:15:56.322Z,67.00
2018-05-24T17:18:23.846Z,67.10
2018-05-24T17:20:51.375Z,67.30
2018-05-24T17:23:18.951Z,67.20
2018-05-24T17:25:46.475Z,67.10
2018-05-24T17:28:14.000Z,66.80
2018-05-24T17:30:41.520Z,66.90
2018-05-24T17:33:09.808Z,66.50
2018-05-24T17:35:37.329Z,66.50
2018-05-24T17:38:04.859Z,66.60
2018-05-24T17:40:32.382Z,66.70
2018-05-24T17:42:59.906Z,66.90
2018-05-24T17:45:27.432Z,66.90
2018-05-24T17:47:54.960Z,67.10
2018-05-24T17:50:23.247Z,67.20
2018-05-24T17:52:51.539Z,67.30
2018-05-24T17:55:19.063Z,67.20
2018-05-24T17:57:46.588Z,67.10
2018-05-24T18:00:14.107Z,67.50
2018-05-24T18:02:42.391Z,67.80
2018-05-24T18:05:09.911Z,67.70
2018-05-24T18:07:37.436Z,68.00
2018-05-24T18:10:04.956Z,68.40
2018-05-24T18:12:32.511Z,67.80
2018-05-24T19:36:57.819Z,67.80
2018-05-24T19:39:26.116Z,68.60
2018-05-24T19:41:53.645Z,68.60
2018-05-24T19:44:21.926Z,68.10
2018-05-24T19:46:50.214Z,68.20
2018-05-24T19:49:17.739Z,68.20
2018-05-24T19:51:45.263Z,68.60
2018-05-24T19:54:12.787Z,68.60
2018-05-24T19:56:40.306Z,68.60
2018-05-24T19:59:07.829Z,68.40
2018-05-24T20:01:35.343Z,68.40
2018-05-24T20:04:02.864Z,68.40
2018-05-24T20:06:30.379Z,68.50
2018-05-24T20:08:58.676Z,69.50
2018-05-24T20:11:26.203Z,69.50
2018-05-24T20:13:53.723Z,69.80
2018-05-24T20:16:21.243Z,70.10
2018-05-24T20:18:48.783Z,70.00
2018-05-24T20:21:16.307Z,70.70
2018-05-24T20:23:43.861Z,71.30
2018-05-24T20:26:11.402Z,78.60
2018-05-24T20:28:38.955Z,73.80
2018-05-24T20:31:06.484Z,73.70
2018-05-24T20:33:34.039Z,77.80
2018-05-24T20:36:01.567Z,74.40
2018-05-24T20:38:29.103Z,74.80
2018-05-24T20:40:56.630Z,75.30
2018-05-24T20:43:24.167Z,74.30
2018-05-24T20:45:51.698Z,75.00
2018-05-24T20:48:19.248Z,74.80
2018-05-24T20:50:46.763Z,74.30
2018-05-24T20:53:14.279Z,73.90
2018-05-24T20:55:41.796Z,74.40
2018-05-24T20:58:09.319Z,74.40
2018-05-24T21:00:36.847Z,74.70
2018-05-24T21:03:04.365Z,74.90
2018-05-24T21:05:31.886Z,80.30
2018-05-24T21:07:59.409Z,78.50
2018-05-24T21:10:26.952Z,78.30
2018-05-24T21:12:54.475Z,77.70
2018-05-24T21:15:22.005Z,81.60
2018-05-24T21:17:49.519Z,82.50
2018-05-24T21:20:17.052Z,82.80
2018-05-24T21:22:44.571Z,91.50
2018-05-24T21:25:12.102Z,92.30
2018-05-24T21:27:39.623Z,92.40
2018-05-24T21:30:07.148Z,91.70
2018-05-24T21:32:34.678Z,91.20
2018-05-24T21:35:02.194Z,90.90
2018-05-24T21:37:29.714Z,89.60
2018-05-24T21:39:57.232Z,87.10
2018-05-24T21:42:24.755Z,89.20
2018-05-24T21:44:52.309Z,88.80
2018-05-24T21:47:19.815Z,87.60
2018-05-24T21:49:47.339Z,87.00
2018-05-24T21:52:15.167Z,87.10
2018-05-24T21:54:42.713Z,86.30
2018-05-24T21:57:10.236Z,85.10
2018-05-24T21:59:37.779Z,86.00
2018-05-24T22:02:05.358Z,85.40
2018-05-24T22:04:32.876Z,85.80
2018-05-24T22:07:01.159Z,84.70
2018-05-24T22:09:28.723Z,84.60
2018-05-24T22:11:56.240Z,84.70
2018-05-24T22:14:23.784Z,84.90
2018-05-24T22:16:51.312Z,84.40
2018-05-24T22:19:19.619Z,84.80
2018-05-24T22:21:47.140Z,84.70
2018-05-24T22:24:15.486Z,84.20
2018-05-24T22:26:43.007Z,84.20
2018-05-24T22:29:10.537Z,84.20
2018-05-24T22:31:38.830Z,84.20
2018-05-24T22:34:06.351Z,84.00
2018-05-24T22:36:33.876Z,84.10
2018-05-24T22:39:01.400Z,83.90
2018-05-24T22:41:29.689Z,83.70
2018-05-24T22:43:57.220Z,83.60
2018-05-24T22:46:24.739Z,83.80
2018-05-24T22:48:52.263Z,83.50
2018-05-24T22:51:19.789Z,83.80
2018-05-24T22:53:47.320Z,83.50
2018-05-24T22:56:14.853Z,83.60
2018-05-24T22:58:42.387Z,84.00
2018-05-24T23:01:09.899Z,83.90
2018-05-24T23:03:37.435Z,83.70
2018-05-24T23:06:04.960Z,83.80
2018-05-24T23:08:33.248Z,83.00
2018-05-24T23:11:00.764Z,83.00
2018-05-24T23:13:28.283Z,83.10
2018-05-24T23:15:55.812Z,82.90
2018-05-24T23:18:23.365Z,82.50
2018-05-24T23:20:50.887Z,82.50
2018-05-24T23:23:18.426Z,82.60
2018-05-24T23:25:46.071Z,82.30
2018-05-24T23:28:13.591Z,82.70
2018-05-24T23:30:41.107Z,82.80
2018-05-24T23:33:08.629Z,82.10
2018-05-24T23:35:36.155Z,82.20
2018-05-24T23:38:03.680Z,82.10
2018-05-24T23:40:31.981Z,82.60
2018-05-24T23:42:59.503Z,82.60
2018-05-24T23:45:27.048Z,82.50
2018-05-24T23:47:54.568Z,82.00
2018-05-24T23:50:22.111Z,82.10
2018-05-24T23:52:49.627Z,82.00
2018-05-24T23:55:17.175Z,82.10
2018-05-24T23:57:44.699Z,82.40
